createdAt,value
2022-09-17T00:00:17.763Z,14.77
2022-09-17T00:05:19.465Z,14.71
2022-09-17T00:10:21.488Z,14.58
2022-09-17T00:15:23.083Z,14.62
2022-09-17T00:20:26.386Z,15.27
2022-09-17T00:25:28.059Z,15.34
2022-09-17T00:30:29.661Z,15.23
2022-09-17T00:35:31.323Z,14.94
2022-09-17T00:40:33.140Z,15.05
2022-09-17T00:45:34.774Z,14.79
2022-09-17T00:50:42.226Z,15.38
2022-09-17T00:55:48.795Z,15.53
2022-09-17T01:00:50.627Z,14.83
2022-09-17T01:06:29.663Z,15.02
2022-09-17T01:11:40.387Z,14.72
2022-09-17T01:17:20.461Z,14.58
2022-09-17T01:22:30.706Z,14.76
2022-09-17T01:28:07.951Z,14.71
2022-09-17T01:33:21.460Z,14.52
2022-09-17T01:38:32.294Z,14.40
2022-09-17T01:43:46.123Z,14.92
2022-09-17T01:48:51.983Z,14.79
2022-09-17T01:54:04.968Z,14.98
2022-09-17T01:59:30.599Z,14.00
2022-09-17T02:04:43.853Z,13.86
2022-09-17T02:09:54.938Z,13.93
2022-09-17T02:15:00.400Z,14.66
2022-09-17T02:20:03.529Z,14.28
2022-09-17T02:25:14.914Z,13.96
2022-09-17T02:30:17.765Z,13.99
2022-09-17T02:35:19.622Z,14.11
2022-09-17T02:40:30.317Z,14.02
2022-09-17T02:45:46.836Z,14.07
2022-09-17T02:51:27.920Z,14.26
2022-09-17T02:56:55.159Z,14.92
2022-09-17T03:02:27.012Z,15.19
2022-09-17T03:07:29.228Z,14.40
2022-09-17T03:12:31.181Z,14.35
2022-09-17T03:17:32.933Z,14.46
2022-09-17T03:22:35.730Z,14.92
2022-09-17T03:27:37.468Z,15.34
2022-09-17T03:32:39.073Z,15.36
2022-09-17T03:37:40.746Z,14.66
2022-09-17T03:42:42.421Z,14.47
2022-09-17T03:47:44.033Z,14.30
2022-09-17T03:52:45.821Z,14.30
2022-09-17T03:57:47.473Z,14.96
2022-09-17T04:02:49.237Z,14.55
2022-09-17T04:07:50.875Z,15.02
2022-09-17T04:12:52.530Z,14.90
2022-09-17T04:17:58.897Z,14.59
2022-09-17T04:23:00.605Z,14.13
2022-09-17T04:28:02.574Z,14.30
2022-09-17T04:33:04.839Z,13.95
2022-09-17T04:38:06.586Z,13.80
2022-09-17T04:43:10.539Z,13.98
2022-09-17T04:48:12.126Z,14.23
2022-09-17T04:53:13.932Z,14.11
2022-09-17T04:58:15.573Z,13.96
2022-09-17T05:03:17.179Z,13.50
2022-09-17T05:08:18.755Z,13.27
2022-09-17T05:13:20.330Z,13.14
2022-09-17T05:18:22.490Z,13.05
2022-09-17T05:23:24.255Z,13.12
2022-09-17T05:28:26.542Z,13.07
2022-09-17T05:33:28.685Z,13.32
2022-09-17T05:38:30.376Z,13.20
2022-09-17T05:43:32.483Z,13.72
2022-09-17T05:48:34.575Z,13.75
2022-09-17T05:53:36.266Z,13.49
2022-09-17T05:58:37.862Z,13.46
2022-09-17T06:03:39.559Z,13.67
2022-09-17T06:08:41.273Z,13.74
2022-09-17T06:13:43.885Z,14.07
2022-09-17T06:18:45.801Z,14.05
2022-09-17T06:23:47.955Z,14.40
2022-09-17T06:28:49.794Z,14.10
2022-09-17T06:33:51.430Z,14.01
2022-09-17T06:38:53.103Z,13.99
2022-09-17T06:43:54.682Z,13.79
2022-09-17T06:48:56.407Z,13.79
2022-09-17T06:53:58.111Z,13.86
2022-09-17T06:59:00.090Z,13.75
2022-09-17T07:04:02.224Z,13.85
2022-09-17T07:09:06.845Z,16.14
2022-09-17T07:14:10.827Z,14.01
2022-09-17T07:19:14.793Z,13.29
2022-09-17T07:24:16.737Z,13.03
2022-09-17T07:29:18.650Z,13.08
2022-09-17T07:34:20.529Z,13.33
2022-09-17T07:39:22.199Z,13.64
2022-09-17T07:44:23.896Z,14.04
2022-09-17T07:49:26.187Z,13.93
2022-09-17T07:54:28.034Z,14.62
2022-09-17T07:59:29.750Z,13.78
2022-09-17T08:04:31.453Z,13.56
2022-09-17T08:09:33.554Z,13.64
2022-09-17T08:14:35.283Z,14.17
2022-09-17T08:19:36.965Z,13.85
2022-09-17T08:24:38.612Z,13.89
2022-09-17T08:29:40.225Z,13.51
2022-09-17T08:34:41.800Z,13.40
2022-09-17T08:39:43.447Z,13.59
2022-09-17T08:44:49.136Z,13.37
2022-09-17T08:49:56.035Z,13.90
2022-09-17T08:55:11.273Z,14.65
2022-09-17T09:00:19.670Z,15.28
2022-09-17T09:05:26.812Z,14.91
2022-09-17T09:10:33.958Z,14.63
2022-09-17T09:15:45.450Z,15.37
2022-09-17T09:21:26.672Z,14.97
2022-09-17T09:26:45.212Z,14.39
2022-09-17T09:31:55.971Z,14.06
2022-09-17T09:37:16.092Z,14.51
2022-09-17T09:42:32.344Z,14.67
2022-09-17T09:47:52.024Z,15.07
2022-09-17T09:53:17.911Z,15.47
2022-09-17T09:58:35.715Z,15.99
2022-09-17T10:03:41.222Z,16.65
2022-09-17T10:09:04.341Z,16.63
2022-09-17T10:14:26.445Z,17.13
2022-09-17T10:19:28.051Z,17.12
2022-09-17T10:24:33.270Z,17.13
2022-09-17T10:29:35.380Z,17.26
2022-09-17T10:34:37.084Z,17.68
2022-09-17T10:39:48.765Z,17.66
2022-09-17T10:44:54.366Z,18.05
2022-09-17T10:50:08.401Z,18.12
2022-09-17T10:55:33.491Z,18.30
2022-09-17T11:01:02.957Z,18.26
2022-09-17T11:06:37.729Z,18.48
2022-09-17T11:12:04.386Z,18.62
2022-09-17T11:17:35.584Z,18.69
2022-09-17T11:22:43.194Z,18.47
2022-09-17T11:27:54.085Z,19.02
2022-09-17T11:33:16.031Z,18.80
2022-09-17T11:38:27.723Z,18.28
2022-09-17T11:43:35.669Z,18.15
2022-09-17T11:48:59.492Z,18.28
2022-09-17T11:54:08.201Z,18.43
2022-09-17T11:59:36.675Z,18.59
2022-09-17T12:04:47.452Z,18.89
2022-09-17T12:09:56.425Z,18.28
2022-09-17T12:15:02.438Z,18.15
2022-09-17T12:20:20.248Z,18.00
2022-09-17T12:25:24.482Z,17.90
2022-09-17T12:30:55.786Z,18.04
2022-09-17T12:36:23.658Z,17.92
2022-09-17T12:41:43.945Z,18.21
2022-09-17T12:46:57.468Z,18.41
2022-09-17T12:52:19.160Z,18.20
2022-09-17T12:57:58.653Z,18.36
2022-09-17T13:03:26.618Z,18.58
2022-09-17T13:08:53.683Z,18.86
2022-09-17T13:14:17.480Z,19.00
2022-09-17T13:19:38.699Z,19.22
2022-09-17T13:24:43.873Z,19.37
2022-09-17T13:29:47.701Z,19.17
2022-09-17T13:39:53.014Z,19.21
2022-09-17T13:45:08.884Z,19.55
2022-09-17T13:50:34.840Z,19.56
2022-09-17T13:55:43.829Z,19.27
2022-09-17T14:01:02.661Z,19.52
2022-09-17T14:06:08.478Z,19.35
2022-09-17T14:11:22.350Z,19.36
2022-09-17T14:16:37.169Z,19.48
2022-09-17T14:21:41.107Z,19.38
2022-09-17T14:27:04.582Z,18.98
2022-09-17T14:32:07.100Z,19.27
2022-09-17T14:37:16.133Z,19.29
2022-09-17T14:42:22.831Z,18.83
2022-09-17T14:47:24.753Z,18.76
2022-09-17T14:52:28.083Z,18.88
2022-09-17T14:57:30.018Z,18.87
2022-09-17T15:02:38.745Z,18.74
2022-09-17T15:07:44.394Z,18.75
2022-09-17T15:12:49.932Z,18.48
2022-09-17T15:17:52.458Z,18.11
2022-09-17T15:23:09.287Z,18.04
2022-09-17T15:28:31.480Z,18.23
2022-09-17T15:33:35.175Z,17.53
2022-09-17T15:38:39.181Z,16.82
2022-09-17T15:43:41.377Z,16.43
2022-09-17T15:48:43.051Z,16.42
2022-09-17T15:53:53.353Z,16.43
2022-09-17T15:59:23.479Z,16.63
2022-09-17T16:04:34.735Z,16.68
2022-09-17T16:09:47.124Z,17.26
2022-09-17T16:14:51.967Z,17.40
2022-09-17T16:19:56.015Z,17.15
2022-09-17T16:24:57.868Z,16.74
2022-09-17T16:30:06.541Z,16.13
2022-09-17T16:35:16.431Z,15.75
2022-09-17T16:40:19.763Z,15.47
2022-09-17T16:45:25.399Z,15.50
2022-09-17T16:50:54.892Z,15.30
2022-09-17T16:55:56.514Z,15.37
2022-09-17T17:00:58.205Z,15.36
2022-09-17T17:05:59.929Z,15.28
2022-09-17T17:11:01.682Z,15.18
2022-09-17T17:16:15.210Z,15.17
2022-09-17T17:21:16.948Z,15.85
2022-09-17T17:26:18.537Z,15.60
2022-09-17T17:31:20.307Z,15.23
2022-09-17T17:36:24.142Z,14.93
2022-09-17T17:41:27.415Z,14.91
2022-09-17T17:46:29.182Z,15.12
2022-09-17T17:51:30.981Z,15.39
2022-09-17T17:56:32.866Z,15.75
2022-09-17T18:01:35.151Z,15.64
2022-09-17T18:06:37.120Z,15.43
2022-09-17T18:11:38.931Z,15.47
2022-09-17T18:16:40.879Z,15.46
2022-09-17T18:21:42.686Z,15.37
2022-09-17T18:26:45.074Z,15.99
2022-09-17T18:31:48.815Z,15.27
2022-09-17T18:36:51.456Z,15.63
2022-09-17T18:41:53.206Z,15.42
2022-09-17T18:46:54.855Z,15.27
2022-09-17T18:51:56.606Z,15.02
2022-09-17T18:56:58.466Z,14.90
2022-09-17T19:02:00.173Z,14.84
2022-09-17T19:07:02.015Z,14.70
2022-09-17T19:12:03.833Z,14.72
2022-09-17T19:17:05.518Z,14.72
2022-09-17T19:22:08.224Z,14.65
2022-09-17T19:27:10.021Z,14.65
2022-09-17T19:32:11.822Z,14.62
2022-09-17T19:37:13.441Z,14.97
2022-09-17T19:42:15.074Z,15.58
2022-09-17T19:47:16.644Z,15.18
2022-09-17T19:52:19.671Z,14.74
2022-09-17T19:57:21.363Z,14.45
2022-09-17T20:02:22.940Z,14.27
2022-09-17T20:07:24.779Z,14.30
2022-09-17T20:12:26.452Z,14.47
2022-09-17T20:17:29.780Z,14.71
2022-09-17T20:22:31.441Z,14.71
2022-09-17T20:27:33.311Z,14.51
2022-09-17T20:32:34.884Z,14.37
2022-09-17T20:38:28.436Z,14.66
2022-09-17T20:42:58.334Z,14.59
2022-09-17T20:48:00.024Z,14.23
2022-09-17T20:53:01.648Z,13.99
2022-09-17T20:58:03.363Z,13.98
2022-09-17T21:03:05.703Z,14.53
2022-09-17T21:08:07.374Z,15.09
2022-09-17T21:13:09.550Z,14.70
2022-09-17T21:18:14.110Z,14.25
2022-09-17T21:23:15.854Z,14.02
2022-09-17T21:28:20.444Z,14.39
2022-09-17T21:33:22.216Z,14.26
2022-09-17T21:38:23.821Z,14.48
2022-09-17T21:43:26.502Z,14.19
2022-09-17T21:48:29.606Z,14.05
2022-09-17T21:53:32.685Z,13.97
2022-09-17T21:58:34.771Z,13.87
2022-09-17T22:03:36.513Z,13.84
2022-09-17T22:08:39.177Z,13.81
2022-09-17T22:13:41.626Z,13.97
2022-09-17T22:18:47.143Z,14.04
2022-09-17T22:23:50.563Z,14.15
2022-09-17T22:28:52.658Z,14.02
2022-09-17T22:33:54.350Z,14.24
2022-09-17T22:38:58.066Z,14.02
2022-09-17T22:44:04.775Z,13.79
2022-09-17T22:49:08.319Z,13.72
2022-09-17T22:54:14.971Z,13.66
2022-09-17T22:59:18.176Z,13.69
2022-09-17T23:04:19.993Z,13.82
2022-09-17T23:09:21.604Z,13.75
2022-09-17T23:14:23.234Z,13.92
2022-09-17T23:19:24.860Z,15.50
2022-09-17T23:24:26.576Z,14.63
2022-09-17T23:29:28.229Z,14.19
2022-09-17T23:34:29.810Z,13.83
2022-09-17T23:39:33.532Z,13.75
2022-09-17T23:44:36.192Z,13.86
2022-09-17T23:49:37.810Z,13.73
2022-09-17T23:54:39.457Z,13.68
2022-09-17T23:59:41.123Z,13.59
